createdAt,value
2023-08-18T00:00:13.135Z,101730.56
2023-08-18T00:02:43.128Z,101735.97
2023-08-18T00:05:10.324Z,101723.75
2023-08-18T00:07:37.134Z,101726.69
2023-08-18T00:10:04.767Z,101724.41
2023-08-18T00:12:31.773Z,101729.19
2023-08-18T00:14:58.654Z,101720.50
2023-08-18T00:17:25.715Z,101725.28
2023-08-18T00:19:54.117Z,101725.28
2023-08-18T00:22:20.844Z,101721.56
2023-08-18T00:24:47.591Z,101726.09
2023-08-18T00:27:14.827Z,101723.41
2023-08-18T00:29:41.849Z,101718.03
2023-08-18T00:32:08.800Z,101723.41
2023-08-18T00:34:35.853Z,101720.72
2023-08-18T00:37:04.125Z,101715.34
2023-08-18T00:39:31.006Z,101716.59
2023-08-18T00:41:58.560Z,101719.50
2023-08-18T00:44:25.391Z,101723.25
2023-08-18T00:46:52.325Z,101728.63
2023-08-18T00:49:20.137Z,101728.84
2023-08-18T00:51:47.685Z,101730.72
2023-08-18T00:54:17.013Z,101733.63
2023-08-18T00:56:44.218Z,101732.78
2023-08-18T00:59:11.478Z,101722.69
2023-08-18T01:01:38.481Z,101714.59
2023-08-18T01:04:06.312Z,101715.44
2023-08-18T01:06:33.504Z,101715.44
2023-08-18T01:09:00.307Z,101718.13
2023-08-18T01:11:36.213Z,101713.78
2023-08-18T01:14:15.338Z,101722.69
2023-08-18T01:16:48.564Z,101718.13
2023-08-18T01:19:17.584Z,101720.81
2023-08-18T01:21:45.424Z,101713.78
2023-08-18T01:24:13.608Z,101709.41
2023-08-18T01:26:43.603Z,101715.84
2023-08-18T01:29:10.505Z,101717.91
2023-08-18T01:31:38.743Z,101717.34
2023-08-18T01:34:08.960Z,101714.84
2023-08-18T01:36:40.001Z,101711.75
2023-08-18T01:39:08.084Z,101703.50
2023-08-18T01:41:37.011Z,101700.16
2023-08-18T01:44:06.815Z,101705.53
2023-08-18T01:46:33.591Z,101702.66
2023-08-18T01:49:00.776Z,101696.25
2023-08-18T01:51:27.534Z,101695.41
2023-08-18T01:53:54.325Z,101699.16
2023-08-18T01:56:21.088Z,101690.44
2023-08-18T01:58:49.604Z,101687.75
2023-08-18T02:01:16.304Z,101684.44
2023-08-18T02:03:43.756Z,101694.19
2023-08-18T02:06:10.740Z,101689.00
2023-08-18T02:08:39.167Z,101690.03
2023-08-18T02:11:06.857Z,101674.72
2023-08-18T02:13:34.003Z,101674.91
2023-08-18T02:16:02.241Z,101666.84
2023-08-18T02:18:29.369Z,101673.28
2023-08-18T02:20:56.809Z,101663.31
2023-08-18T02:23:24.234Z,101659.59
2023-08-18T02:25:51.180Z,101659.59
2023-08-18T02:28:20.970Z,101669.75
2023-08-18T02:30:47.706Z,101664.38
2023-08-18T02:33:15.944Z,101656.28
2023-08-18T02:35:45.290Z,101657.56
2023-08-18T02:38:16.059Z,101650.13
2023-08-18T02:40:44.408Z,101643.94
2023-08-18T02:43:11.239Z,101649.06
2023-08-18T02:45:38.039Z,101652.59
2023-08-18T02:48:05.755Z,101656.31
2023-08-18T02:50:35.530Z,101663.81
2023-08-18T02:53:04.651Z,101663.81
2023-08-18T02:55:31.496Z,101657.59
2023-08-18T02:57:58.252Z,101664.84
2023-08-18T03:00:25.582Z,101668.38
2023-08-18T03:02:52.401Z,101668.38
2023-08-18T03:05:19.134Z,101661.13
2023-08-18T03:07:47.560Z,101666.50
2023-08-18T03:10:14.645Z,101655.31
2023-08-18T03:12:41.351Z,101659.88
2023-08-18T03:15:09.127Z,101651.59
2023-08-18T03:17:35.914Z,101651.59
2023-08-18T03:20:05.829Z,101658.63
2023-08-18T03:22:33.957Z,101651.38
2023-08-18T03:25:02.555Z,101650.56
2023-08-18T03:27:29.621Z,101647.25
2023-08-18T03:29:56.575Z,101645.59
2023-08-18T03:32:25.096Z,101642.06
2023-08-18T03:34:54.703Z,101639.38
2023-08-18T03:37:21.708Z,101650.41
2023-08-18T03:39:48.448Z,101648.53
2023-08-18T03:42:16.952Z,101644.78
2023-08-18T03:44:43.755Z,101650.97
2023-08-18T03:47:10.516Z,101649.13
2023-08-18T03:49:37.301Z,101654.28
2023-08-18T03:52:04.328Z,101654.91
2023-08-18T03:54:31.542Z,101653.88
2023-08-18T03:56:58.368Z,101643.53
2023-08-18T03:59:26.644Z,101645.19
2023-08-18T04:01:53.409Z,101637.94
2023-08-18T04:04:20.166Z,101636.06
2023-08-18T04:06:46.962Z,101646.00
2023-08-18T04:09:17.281Z,101634.41
2023-08-18T04:11:44.982Z,101642.28
2023-08-18T04:14:11.931Z,101641.66
2023-08-18T04:16:40.125Z,101642.50
2023-08-18T04:19:06.912Z,101647.03
2023-08-18T04:21:33.970Z,101645.59
2023-08-18T04:24:01.286Z,101640.22
2023-08-18T04:26:28.649Z,101636.09
2023-08-18T04:28:55.708Z,101630.72
2023-08-18T04:31:22.953Z,101636.09
2023-08-18T04:33:51.121Z,101630.72
2023-08-18T04:36:17.899Z,101633.19
2023-08-18T04:38:44.674Z,101624.31
2023-08-18T04:41:11.452Z,101623.25
2023-08-18T04:43:38.186Z,101630.28
2023-08-18T04:46:04.942Z,101637.31
2023-08-18T04:48:31.865Z,101643.53
2023-08-18T04:51:00.014Z,101643.72
2023-08-18T04:53:26.825Z,101642.75
2023-08-18T04:55:53.612Z,101644.38
2023-08-18T04:58:20.388Z,101637.97
2023-08-18T05:00:47.529Z,101639.84
2023-08-18T05:03:14.789Z,101634.44
2023-08-18T05:06:09.357Z,101633.19
2023-08-18T05:08:36.818Z,101634.25
2023-08-18T05:11:05.424Z,101634.25
2023-08-18T05:13:33.685Z,101621.19
2023-08-18T05:16:04.350Z,101616.47
2023-08-18T05:18:32.211Z,101628.06
2023-08-18T05:21:01.608Z,101623.50
2023-08-18T05:23:29.385Z,101620.59
2023-08-18T05:25:57.496Z,101624.94
2023-08-18T05:28:25.783Z,101619.34
2023-08-18T05:30:56.346Z,101621.81
2023-08-18T05:33:23.302Z,101623.47
2023-08-18T05:35:50.128Z,101630.72
2023-08-18T05:38:18.478Z,101624.50
2023-08-18T05:40:46.975Z,101621.81
2023-08-18T05:43:15.596Z,101623.69
2023-08-18T05:45:44.232Z,101620.78
2023-08-18T05:48:11.116Z,101618.09
2023-08-18T05:50:38.339Z,101619.72
2023-08-18T05:53:06.134Z,101622.19
2023-08-18T05:55:34.502Z,101616.00
2023-08-18T05:58:03.285Z,101616.59
2023-08-18T06:00:31.396Z,101618.06
2023-08-18T06:02:59.091Z,101611.63
2023-08-18T06:05:29.915Z,101618.63
2023-08-18T06:07:56.880Z,101625.47
2023-08-18T06:10:24.675Z,101617.38
2023-08-18T06:12:53.309Z,101614.69
2023-08-18T06:15:21.771Z,101611.59
2023-08-18T06:17:51.614Z,101613.00
2023-08-18T06:20:18.498Z,101612.78
2023-08-18T06:22:45.360Z,101609.88
2023-08-18T06:25:12.691Z,101612.38
2023-08-18T06:27:39.574Z,101611.28
2023-08-18T06:30:09.048Z,101610.28
2023-08-18T06:32:35.899Z,101612.56
2023-08-18T06:35:02.913Z,101609.66
2023-08-18T06:37:29.939Z,101594.31
2023-08-18T06:39:57.200Z,101595.53
2023-08-18T06:42:24.166Z,101582.06
2023-08-18T06:44:50.908Z,101584.53
2023-08-18T06:47:19.158Z,101586.19
2023-08-18T06:49:45.900Z,101582.66
2023-08-18T06:52:12.695Z,101593.81
2023-08-18T06:54:41.724Z,101590.09
2023-08-18T06:57:08.720Z,101596.09
2023-08-18T06:59:38.478Z,101598.56
2023-08-18T07:02:05.402Z,101592.94
2023-08-18T07:04:33.578Z,101591.69
2023-08-18T07:07:00.454Z,101591.25
2023-08-18T07:09:27.260Z,101591.84
2023-08-18T07:11:54.017Z,101590.78
2023-08-18T07:14:20.899Z,101596.78
2023-08-18T07:16:47.812Z,101597.41
2023-08-18T07:19:14.537Z,101593.63
2023-08-18T07:21:42.731Z,101598.38
2023-08-18T07:24:09.461Z,101597.34
2023-08-18T07:26:36.343Z,101597.94
2023-08-18T07:29:05.741Z,101596.88
2023-08-18T07:31:32.538Z,101597.50
2023-08-18T07:33:59.368Z,101605.38
2023-08-18T07:36:26.361Z,101604.09
2023-08-18T07:38:54.619Z,101602.00
2023-08-18T07:41:21.521Z,101597.22
2023-08-18T07:43:48.587Z,101606.50
2023-08-18T07:46:15.604Z,101601.72
2023-08-18T07:48:44.401Z,101598.81
2023-08-18T07:51:11.419Z,101595.66
2023-08-18T07:53:38.338Z,101605.19
2023-08-18T07:56:06.654Z,101602.84
2023-08-18T07:58:34.358Z,101598.06
2023-08-18T08:01:02.602Z,101598.66
2023-08-18T08:03:29.947Z,101609.47
2023-08-18T08:05:57.130Z,101608.41
2023-08-18T08:08:23.995Z,101606.28
2023-08-18T08:10:50.849Z,101608.56
2023-08-18T08:13:19.064Z,101612.91
2023-08-18T08:15:47.200Z,101611.88
2023-08-18T08:18:14.930Z,101617.03
2023-08-18T08:20:41.850Z,101620.31
2023-08-18T08:23:10.933Z,101613.66
2023-08-18T08:25:39.511Z,101613.22
2023-08-18T08:28:06.746Z,101613.00
2023-08-18T08:30:36.984Z,101610.94
2023-08-18T08:33:07.887Z,101606.97
2023-08-18T08:35:35.175Z,101609.41
2023-08-18T08:38:02.004Z,101618.94
2023-08-18T08:40:28.748Z,101616.84
2023-08-18T08:43:04.197Z,101615.81
2023-08-18T08:45:33.209Z,101615.34
2023-08-18T08:48:07.507Z,101620.28
2023-08-18T08:50:40.833Z,101629.56
2023-08-18T08:53:10.793Z,101622.09
2023-08-18T08:55:39.300Z,101615.19
2023-08-18T08:58:06.627Z,101616.63
2023-08-18T09:00:33.647Z,101611.81
2023-08-18T09:03:03.164Z,101613.22
2023-08-18T09:05:34.346Z,101610.09
2023-08-18T09:08:01.525Z,101611.75
2023-08-18T09:10:28.829Z,101608.00
2023-08-18T09:12:55.748Z,101605.88
2023-08-18T09:15:24.463Z,101609.19
2023-08-18T09:17:54.682Z,101608.94
2023-08-18T09:20:24.407Z,101608.72
2023-08-18T09:22:55.606Z,101603.09
2023-08-18T09:25:27.179Z,101605.56
2023-08-18T09:27:54.627Z,101608.88
2023-08-18T09:30:23.340Z,101614.63
2023-08-18T09:32:51.298Z,101607.13
2023-08-18T09:35:22.132Z,101604.19
2023-08-18T09:37:57.403Z,101602.09
2023-08-18T09:40:24.553Z,101598.09
2023-08-18T09:42:51.729Z,101592.25
2023-08-18T09:45:20.794Z,101597.19
2023-08-18T09:47:50.453Z,101602.75
2023-08-18T09:50:20.551Z,101603.91
2023-08-18T09:52:53.265Z,101596.44
2023-08-18T09:55:26.704Z,101607.38
2023-08-18T09:58:00.218Z,101608.34
2023-08-18T10:00:28.372Z,101602.47
2023-08-18T10:02:59.866Z,101600.38
2023-08-18T10:05:27.789Z,101598.84
2023-08-18T10:07:56.362Z,101590.03
2023-08-18T10:10:26.545Z,101588.53
2023-08-18T10:12:53.438Z,101575.63
2023-08-18T10:15:22.158Z,101576.59
2023-08-18T10:17:48.984Z,101568.81
2023-08-18T10:20:15.827Z,101565.44
2023-08-18T10:22:44.077Z,101570.94
2023-08-18T10:25:23.424Z,101570.25
2023-08-18T10:27:51.673Z,101578.22
2023-08-18T10:30:27.479Z,101567.06
2023-08-18T10:32:57.141Z,101563.41
2023-08-18T10:35:25.278Z,101558.72
2023-08-18T10:37:52.130Z,101561.09
2023-08-18T10:40:26.128Z,101562.84
2023-08-18T10:42:58.798Z,101560.84
2023-08-18T10:45:28.074Z,101560.97
2023-08-18T10:47:58.882Z,101562.94
2023-08-18T10:50:28.442Z,101568.47
2023-08-18T10:52:56.791Z,101555.88
2023-08-18T10:55:23.812Z,101556.22
2023-08-18T10:57:50.880Z,101550.66
2023-08-18T11:00:20.285Z,101541.56
2023-08-18T11:02:50.583Z,101530.88
2023-08-18T11:05:18.702Z,101531.56
2023-08-18T11:07:45.823Z,101525.72
2023-08-18T11:10:18.219Z,101514.19
2023-08-18T11:12:45.849Z,101525.13
2023-08-18T11:15:14.244Z,101517.38
2023-08-18T11:17:43.577Z,101518.50
2023-08-18T11:20:14.054Z,101518.59
2023-08-18T11:22:41.882Z,101517.03
2023-08-18T11:25:13.008Z,101517.13
2023-08-18T11:27:42.726Z,101512.84
2023-08-18T11:30:11.559Z,101515.91
2023-08-18T11:32:43.641Z,101503.50
2023-08-18T11:35:11.315Z,101499.81
2023-08-18T11:37:40.562Z,101493.66
2023-08-18T11:40:10.375Z,101482.66
2023-08-18T11:42:40.371Z,101487.66
2023-08-18T11:45:09.031Z,101478.78
2023-08-18T11:47:37.663Z,101484.25
2023-08-18T11:50:08.553Z,101481.06
2023-08-18T11:52:44.411Z,101478.44
2023-08-18T11:55:12.308Z,101467.72
2023-08-18T11:57:42.248Z,101475.06
2023-08-18T12:00:14.447Z,101477.03
2023-08-18T12:02:42.883Z,101472.50
2023-08-18T12:05:21.412Z,101464.44
2023-08-18T12:07:48.183Z,101468.84
2023-08-18T12:10:15.142Z,101470.56
2023-08-18T12:12:41.889Z,101448.09
2023-08-18T12:15:10.899Z,101450.31
2023-08-18T12:17:37.640Z,101455.53
2023-08-18T12:20:07.855Z,101448.03
2023-08-18T12:22:37.141Z,101446.19
2023-08-18T12:25:10.786Z,101448.16
2023-08-18T12:27:37.547Z,101450.13
2023-08-18T12:30:05.073Z,101445.56
2023-08-18T12:32:33.570Z,101444.81
2023-08-18T12:35:00.728Z,101439.44
2023-08-18T12:37:29.718Z,101438.91
2023-08-18T12:39:59.171Z,101439.78
2023-08-18T12:42:26.142Z,101442.81
2023-08-18T12:44:52.970Z,101432.25
2023-08-18T12:47:20.858Z,101439.63
2023-08-18T12:49:48.372Z,101432.59
2023-08-18T12:52:15.251Z,101433.72
2023-08-18T12:54:42.338Z,101431.28
2023-08-18T12:57:11.511Z,101434.91
2023-08-18T12:59:38.342Z,101433.28
2023-08-18T13:02:05.535Z,101431.44
2023-08-18T13:04:33.225Z,101434.19
2023-08-18T13:07:00.169Z,101434.25
2023-08-18T13:09:28.343Z,101435.38
2023-08-18T13:11:56.129Z,101440.28
2023-08-18T13:14:26.765Z,101444.13
2023-08-18T13:16:59.075Z,101428.13
2023-08-18T13:19:27.239Z,101421.06
2023-08-18T13:21:58.412Z,101422.19
2023-08-18T13:24:27.025Z,101424.94
2023-08-18T13:26:54.126Z,101416.00
2023-08-18T13:29:22.462Z,101423.63
2023-08-18T13:31:53.820Z,101410.31
2023-08-18T13:34:21.001Z,101413.59
2023-08-18T13:36:48.026Z,101413.91
2023-08-18T13:39:16.902Z,101410.66
2023-08-18T13:41:43.818Z,101412.84
2023-08-18T13:44:10.913Z,101408.50
2023-08-18T13:46:38.106Z,101414.25
2023-08-18T13:49:06.445Z,101403.63
2023-08-18T13:51:33.203Z,101402.31
2023-08-18T13:54:00.008Z,101401.75
2023-08-18T13:56:28.092Z,101396.91
2023-08-18T13:58:54.807Z,101390.94
2023-08-18T14:01:21.554Z,101393.38
2023-08-18T14:03:48.375Z,101388.75
2023-08-18T14:06:16.405Z,101387.69
2023-08-18T14:08:43.165Z,101378.44
2023-08-18T14:11:09.958Z,101385.25
2023-08-18T14:13:38.825Z,101377.38
2023-08-18T14:16:05.964Z,101377.66
2023-08-18T14:18:32.796Z,101376.84
2023-08-18T14:20:59.628Z,101376.03
2023-08-18T14:23:29.832Z,101384.25
2023-08-18T14:25:56.933Z,101383.16
2023-08-18T14:28:23.883Z,101372.00
2023-08-18T14:30:50.642Z,101375.00
2023-08-18T14:33:25.731Z,101379.91
2023-08-18T14:35:58.606Z,101381.00
2023-08-18T14:38:28.197Z,101376.94
2023-08-18T14:40:55.733Z,101369.84
2023-08-18T14:43:22.565Z,101375.03
2023-08-18T14:45:49.363Z,101378.81
2023-08-18T14:48:16.124Z,101374.19
2023-08-18T14:50:43.123Z,101373.94
2023-08-18T14:55:55.326Z,101361.16
2023-08-18T14:58:26.770Z,101363.59
2023-08-18T15:00:53.561Z,101364.97
2023-08-18T15:03:20.530Z,101355.72
2023-08-18T15:05:47.308Z,101358.44
2023-08-18T15:08:14.804Z,101358.44
2023-08-18T15:10:41.896Z,101353.00
2023-08-18T15:13:10.086Z,101355.47
2023-08-18T15:15:36.987Z,101342.66
2023-08-18T15:18:04.654Z,101339.94
2023-08-18T15:20:39.034Z,101330.69
2023-08-18T15:23:05.898Z,101330.69
2023-08-18T15:25:33.017Z,101330.69
2023-08-18T15:28:00.023Z,101326.88
2023-08-18T15:30:31.783Z,101329.59
2023-08-18T15:32:58.745Z,101329.34
2023-08-18T15:35:25.614Z,101327.41
2023-08-18T15:37:52.629Z,101325.81
2023-08-18T15:40:20.754Z,101324.69
2023-08-18T15:42:47.632Z,101324.69
2023-08-18T15:45:19.604Z,101327.41
2023-08-18T15:47:49.918Z,101320.88
2023-08-18T15:50:17.054Z,101322.25
2023-08-18T15:52:43.803Z,101322.50
2023-08-18T15:55:10.666Z,101316.78
2023-08-18T15:57:37.511Z,101311.63
2023-08-18T16:00:05.440Z,101306.44
2023-08-18T16:02:33.288Z,101309.44
2023-08-18T16:05:02.166Z,101302.59
2023-08-18T16:07:29.180Z,101310.25
2023-08-18T16:09:56.049Z,101299.91
2023-08-18T16:12:23.106Z,101305.06
2023-08-18T16:15:26.686Z,101301.78
2023-08-18T16:17:36.767Z,101304.25
2023-08-18T16:20:09.534Z,101307.78
2023-08-18T16:22:38.927Z,101316.50
2023-08-18T16:25:06.588Z,101312.66
2023-08-18T16:27:33.764Z,101311.06
2023-08-18T16:30:02.422Z,101316.22
2023-08-18T16:32:29.142Z,101302.88
2023-08-18T16:34:57.431Z,101309.41
2023-08-18T16:37:25.769Z,101306.97
2023-08-18T16:39:52.576Z,101303.41
2023-08-18T16:42:19.228Z,101301.22
2023-08-18T16:44:46.008Z,101304.25
2023-08-18T16:47:12.754Z,101303.72
2023-08-18T16:49:39.465Z,101302.34
2023-08-18T16:52:06.760Z,101298.28
2023-08-18T16:54:35.236Z,101300.44
2023-08-18T16:57:02.758Z,101302.34
2023-08-18T16:59:34.161Z,101309.97
2023-08-18T17:02:01.438Z,101304.78
2023-08-18T17:04:29.151Z,101300.47
2023-08-18T17:06:56.574Z,101297.19
2023-08-18T17:09:23.991Z,101296.38
2023-08-18T17:11:53.132Z,101293.09
2023-08-18T17:14:20.979Z,101295.00
2023-08-18T17:16:47.823Z,101289.81
2023-08-18T17:19:14.712Z,101289.81
2023-08-18T17:21:41.769Z,101282.78
2023-08-18T17:24:09.575Z,101285.50
2023-08-18T17:26:36.687Z,101277.84
2023-08-18T17:29:05.345Z,101284.38
2023-08-18T17:31:34.297Z,101281.13
2023-08-18T17:34:01.400Z,101280.59
2023-08-18T17:36:28.156Z,101284.41
2023-08-18T17:38:55.050Z,101282.22
2023-08-18T17:41:21.974Z,101285.19
2023-08-18T17:43:48.733Z,101289.81
2023-08-18T17:46:16.890Z,101280.28
2023-08-18T17:48:43.744Z,101282.47
2023-08-18T17:51:10.457Z,101287.09
2023-08-18T17:53:37.190Z,101285.44
2023-08-18T17:56:04.652Z,101277.56
2023-08-18T17:58:31.760Z,101276.75
2023-08-18T18:00:59.431Z,101282.47
2023-08-18T18:03:28.156Z,101283.81
2023-08-18T18:05:55.036Z,101280.28
2023-08-18T18:08:21.996Z,101292.56
2023-08-18T18:10:49.607Z,101290.09
2023-08-18T18:13:17.235Z,101276.47
2023-08-18T18:15:44.478Z,101269.66
2023-08-18T18:18:11.695Z,101265.88
2023-08-18T18:20:40.056Z,101259.88
2023-08-18T18:23:06.768Z,101266.69
2023-08-18T18:25:33.494Z,101259.88
2023-08-18T18:28:00.320Z,101257.69
2023-08-18T18:30:27.111Z,101258.25
2023-08-18T18:32:54.210Z,101258.78
2023-08-18T18:35:22.232Z,101266.69
2023-08-18T18:37:50.459Z,101266.94
2023-08-18T18:40:19.327Z,101262.03
2023-08-18T18:42:47.517Z,101266.66
2023-08-18T18:45:14.865Z,101257.94
2023-08-18T18:47:41.862Z,101263.13
2023-08-18T18:50:10.370Z,101260.91
2023-08-18T18:52:37.143Z,101259.56
2023-08-18T18:55:06.872Z,101266.59
2023-08-18T18:57:34.135Z,101265.50
2023-08-18T19:00:00.983Z,101260.59
2023-08-18T19:02:29.126Z,101251.34
2023-08-18T19:04:56.100Z,101259.78
2023-08-18T19:07:24.047Z,101259.50
2023-08-18T19:09:53.052Z,101271.16
2023-08-18T19:12:21.454Z,101270.06
2023-08-18T19:14:48.366Z,101267.88
2023-08-18T19:17:15.111Z,101264.59
2023-08-18T19:19:41.850Z,101276.03
2023-08-18T19:22:08.781Z,101279.25
2023-08-18T19:24:41.298Z,101269.75
2023-08-18T19:27:08.793Z,101273.00
2023-08-18T19:29:36.921Z,101270.81
2023-08-18T19:32:10.014Z,101272.16
2023-08-18T19:34:37.026Z,101275.69
2023-08-18T19:37:03.989Z,101274.88
2023-08-18T19:39:31.043Z,101272.94
2023-08-18T19:41:57.895Z,101276.19
2023-08-18T19:44:24.667Z,101282.69
2023-08-18T19:46:52.808Z,101284.84
2023-08-18T19:49:19.556Z,101279.97
2023-08-18T19:51:46.386Z,101283.19
2023-08-18T19:54:13.207Z,101280.72
2023-08-18T19:56:39.980Z,101287.50
2023-08-18T19:59:08.350Z,101271.47
2023-08-18T20:01:35.121Z,101271.97
2023-08-18T20:04:03.725Z,101277.94
2023-08-18T20:06:30.660Z,101271.13
2023-08-18T20:08:59.407Z,101267.84
2023-08-18T20:11:26.859Z,101263.78
2023-08-18T20:13:54.773Z,101261.34
2023-08-18T20:16:22.200Z,101268.91
2023-08-18T20:18:50.384Z,101262.91
2023-08-18T20:21:18.652Z,101271.34
2023-08-18T20:23:45.409Z,101269.97
2023-08-18T20:26:12.237Z,101272.94
2023-08-18T20:28:39.104Z,101263.44
2023-08-18T20:31:07.062Z,101265.59
2023-08-18T20:33:35.073Z,101257.69
2023-08-18T20:36:02.187Z,101259.59
2023-08-18T20:38:30.455Z,101257.13
2023-08-18T20:40:58.001Z,101252.25
2023-08-18T20:43:25.981Z,101254.97
2023-08-18T20:45:54.636Z,101258.19
2023-08-18T20:48:24.027Z,101254.91
2023-08-18T20:50:51.184Z,101250.59
2023-08-18T20:53:18.201Z,101254.38
2023-08-18T20:55:47.394Z,101255.44
2023-08-18T20:58:14.260Z,101252.16
2023-08-18T21:00:42.932Z,101257.59
2023-08-18T21:03:10.124Z,101255.94
2023-08-18T21:05:36.938Z,101255.94
2023-08-18T21:08:04.583Z,101255.13
2023-08-18T21:10:31.379Z,101248.34
2023-08-18T21:12:59.495Z,101253.78
2023-08-18T21:15:26.625Z,101255.09
2023-08-18T21:17:53.691Z,101250.75
2023-08-18T21:20:20.695Z,101252.41
2023-08-18T21:22:49.185Z,101251.56
2023-08-18T21:25:17.233Z,101254.53
2023-08-18T21:27:44.214Z,101250.75
2023-08-18T21:30:15.071Z,101249.13
2023-08-18T21:32:41.950Z,101248.28
2023-08-18T21:35:10.682Z,101243.97
2023-08-18T21:37:37.699Z,101243.16
2023-08-18T21:40:05.559Z,101234.44
2023-08-18T21:42:33.173Z,101234.69
2023-08-18T21:45:01.106Z,101237.41
2023-08-18T21:47:29.425Z,101237.66
2023-08-18T21:49:56.278Z,101231.69
2023-08-18T21:52:23.344Z,101227.34
2023-08-18T21:54:50.208Z,101231.13
2023-08-18T21:57:17.256Z,101222.16
2023-08-18T21:59:44.203Z,101228.41
2023-08-18T22:02:10.999Z,101223.22
2023-08-18T22:04:39.214Z,101220.50
2023-08-18T22:07:06.300Z,101220.75
2023-08-18T22:09:33.097Z,101226.19
2023-08-18T22:11:59.828Z,101221.03
2023-08-18T22:14:26.669Z,101222.13
2023-08-18T22:16:53.897Z,101215.03
2023-08-18T22:19:20.671Z,101221.28
2023-08-18T22:21:48.828Z,101220.47
2023-08-18T22:24:15.626Z,101214.47
2023-08-18T22:26:43.485Z,101212.84
2023-08-18T22:29:10.410Z,101214.72
2023-08-18T22:31:37.255Z,101212.03
2023-08-18T22:34:04.376Z,101208.22
2023-08-18T22:36:31.152Z,101206.34
2023-08-18T22:38:59.493Z,101206.34
2023-08-18T22:41:27.704Z,101199.28
2023-08-18T22:43:54.476Z,101191.41
2023-08-18T22:46:21.407Z,101203.06
2023-08-18T22:48:48.153Z,101191.13
2023-08-18T22:51:14.950Z,101193.84
2023-08-18T22:53:41.630Z,101188.41
2023-08-18T22:56:09.922Z,101178.66
2023-08-18T22:58:36.725Z,101183.00
2023-08-18T23:01:03.659Z,101177.31
2023-08-18T23:03:30.485Z,101173.53
2023-08-18T23:05:57.385Z,101185.19
2023-08-18T23:08:24.226Z,101175.97
2023-08-18T23:10:50.961Z,101178.69
2023-08-18T23:13:19.125Z,101175.16
2023-08-18T23:15:45.882Z,101176.25
2023-08-18T23:18:12.700Z,101173.53
2023-08-18T23:20:39.692Z,101171.06
2023-08-18T23:23:06.559Z,101176.50
2023-08-18T23:25:33.369Z,101168.59
2023-08-18T23:28:00.079Z,101164.28
2023-08-18T23:30:28.201Z,101161.81
2023-08-18T23:32:55.119Z,101167.25
2023-08-18T23:35:22.379Z,101153.94
2023-08-18T23:37:49.165Z,101156.66
2023-08-18T23:40:16.157Z,101155.03
2023-08-18T23:42:43.944Z,101151.75
2023-08-18T23:45:31.005Z,101152.81
2023-08-18T23:47:57.832Z,101154.16
2023-08-18T23:50:24.640Z,101155.25
2023-08-18T23:52:56.536Z,101157.13
2023-08-18T23:55:23.333Z,101147.63
2023-08-18T23:57:50.333Z,101152.50
